sensor_id;sensor_type;location;lat;lon;timestamp;P1;durP1;ratioP1;P2;durP2;ratioP2
1731;SDS011;863;52.268;8.834;2022-07-22T00:01:53;10.40;;;9.47;;
1731;SDS011;863;52.268;8.834;2022-07-22T00:04:18;10.10;;;9.20;;
1731;SDS011;863;52.268;8.834;2022-07-22T00:06:43;10.10;;;9.20;;
1731;SDS011;863;52.268;8.834;2022-07-22T00:09:08;9.80;;;8.90;;
1731;SDS011;863;52.268;8.834;2022-07-22T00:11:34;8.20;;;7.50;;
1731;SDS011;863;52.268;8.834;2022-07-22T00:13:59;6.67;;;6.07;;
1731;SDS011;863;52.268;8.834;2022-07-22T00:16:24;6.50;;;5.90;;
1731;SDS011;863;52.268;8.834;2022-07-22T00:18:49;6.23;;;5.73;;
1731;SDS011;863;52.268;8.834;2022-07-22T00:21:15;5.80;;;5.30;;
1731;SDS011;863;52.268;8.834;2022-07-22T00:23:40;6.07;;;5.57;;
1731;SDS011;863;52.268;8.834;2022-07-22T00:26:05;6.10;;;5.60;;
1731;SDS011;863;52.268;8.834;2022-07-22T00:28:30;5.77;;;5.27;;
1731;SDS011;863;52.268;8.834;2022-07-22T00:30:55;4.20;;;3.80;;
1731;SDS011;863;52.268;8.834;2022-07-22T00:33:21;3.40;;;2.90;;
1731;SDS011;863;52.268;8.834;2022-07-22T00:35:47;4.60;;;3.00;;
1731;SDS011;863;52.268;8.834;2022-07-22T00:38:12;2.63;;;2.15;;
1731;SDS011;863;52.268;8.834;2022-07-22T00:40:37;3.45;;;2.20;;
1731;SDS011;863;52.268;8.834;2022-07-22T00:43:02;2.47;;;2.00;;
1731;SDS011;863;52.268;8.834;2022-07-22T00:45:27;5.43;;;2.60;;
1731;SDS011;863;52.268;8.834;2022-07-22T00:47:52;4.03;;;1.90;;
1731;SDS011;863;52.268;8.834;2022-07-22T00:50:18;3.00;;;2.40;;
1731;SDS011;863;52.268;8.834;2022-07-22T00:52:44;2.40;;;2.10;;
1731;SDS011;863;52.268;8.834;2022-07-22T00:55:10;2.50;;;2.00;;
1731;SDS011;863;52.268;8.834;2022-07-22T00:57:35;3.50;;;2.30;;
1731;SDS011;863;52.268;8.834;2022-07-22T01:00:01;2.10;;;1.70;;
1731;SDS011;863;52.268;8.834;2022-07-22T01:02:26;2.00;;;1.77;;
1731;SDS011;863;52.268;8.834;2022-07-22T01:04:51;2.87;;;2.13;;
1731;SDS011;863;52.268;8.834;2022-07-22T01:07:17;2.20;;;1.60;;
1731;SDS011;863;52.268;8.834;2022-07-22T01:09:45;3.60;;;1.60;;
1731;SDS011;863;52.268;8.834;2022-07-22T01:12:10;1.90;;;1.70;;
1731;SDS011;863;52.268;8.834;2022-07-22T01:14:36;1.80;;;1.50;;
1731;SDS011;863;52.268;8.834;2022-07-22T01:17:01;2.57;;;1.73;;
1731;SDS011;863;52.268;8.834;2022-07-22T01:19:26;3.13;;;1.80;;
1731;SDS011;863;52.268;8.834;2022-07-22T01:21:51;1.93;;;1.60;;
1731;SDS011;863;52.268;8.834;2022-07-22T01:24:16;1.93;;;1.33;;
1731;SDS011;863;52.268;8.834;2022-07-22T01:26:42;1.70;;;1.30;;
1731;SDS011;863;52.268;8.834;2022-07-22T01:29:07;3.70;;;1.47;;
1731;SDS011;863;52.268;8.834;2022-07-22T01:31:32;2.47;;;1.70;;
1731;SDS011;863;52.268;8.834;2022-07-22T01:33:57;2.40;;;1.60;;
1731;SDS011;863;52.268;8.834;2022-07-22T01:36:23;1.90;;;1.50;;
1731;SDS011;863;52.268;8.834;2022-07-22T01:38:48;2.40;;;1.70;;
1731;SDS011;863;52.268;8.834;2022-07-22T01:41:13;2.50;;;1.70;;
1731;SDS011;863;52.268;8.834;2022-07-22T01:43:38;3.03;;;1.80;;
1731;SDS011;863;52.268;8.834;2022-07-22T01:46:04;2.03;;;1.83;;
1731;SDS011;863;52.268;8.834;2022-07-22T01:48:29;2.23;;;1.50;;
1731;SDS011;863;52.268;8.834;2022-07-22T01:50:54;1.70;;;1.60;;
1731;SDS011;863;52.268;8.834;2022-07-22T01:53:19;2.27;;;1.80;;
1731;SDS011;863;52.268;8.834;2022-07-22T01:55:45;3.60;;;2.00;;
1731;SDS011;863;52.268;8.834;2022-07-22T01:58:10;2.67;;;2.00;;
1731;SDS011;863;52.268;8.834;2022-07-22T02:00:35;2.47;;;1.87;;
1731;SDS011;863;52.268;8.834;2022-07-22T02:03:01;2.87;;;2.00;;
1731;SDS011;863;52.268;8.834;2022-07-22T02:05:26;2.73;;;1.93;;
1731;SDS011;863;52.268;8.834;2022-07-22T02:07:51;2.63;;;2.37;;
1731;SDS011;863;52.268;8.834;2022-07-22T02:10:16;2.20;;;2.00;;
1731;SDS011;863;52.268;8.834;2022-07-22T02:12:42;3.30;;;2.30;;
1731;SDS011;863;52.268;8.834;2022-07-22T02:15:07;2.27;;;2.07;;
1731;SDS011;863;52.268;8.834;2022-07-22T02:17:33;2.80;;;2.20;;
1731;SDS011;863;52.268;8.834;2022-07-22T02:19:58;2.67;;;2.03;;
1731;SDS011;863;52.268;8.834;2022-07-22T02:22:24;2.23;;;1.90;;
1731;SDS011;863;52.268;8.834;2022-07-22T02:24:49;5.93;;;2.00;;
1731;SDS011;863;52.268;8.834;2022-07-22T02:27:14;4.53;;;1.83;;
1731;SDS011;863;52.268;8.834;2022-07-22T02:29:39;3.00;;;1.93;;
1731;SDS011;863;52.268;8.834;2022-07-22T02:32:05;3.80;;;1.70;;
1731;SDS011;863;52.268;8.834;2022-07-22T02:34:30;3.10;;;2.17;;
1731;SDS011;863;52.268;8.834;2022-07-22T02:36:55;3.67;;;2.13;;
1731;SDS011;863;52.268;8.834;2022-07-22T02:39:20;2.37;;;1.90;;
1731;SDS011;863;52.268;8.834;2022-07-22T02:41:45;2.20;;;1.80;;
1731;SDS011;863;52.268;8.834;2022-07-22T02:44:10;1.70;;;1.50;;
1731;SDS011;863;52.268;8.834;2022-07-22T02:46:36;3.50;;;1.57;;
1731;SDS011;863;52.268;8.834;2022-07-22T02:49:01;1.90;;;1.35;;
1731;SDS011;863;52.268;8.834;2022-07-22T02:51:27;2.37;;;1.63;;
1731;SDS011;863;52.268;8.834;2022-07-22T02:53:52;2.90;;;1.33;;
1731;SDS011;863;52.268;8.834;2022-07-22T02:56:17;1.90;;;1.10;;
1731;SDS011;863;52.268;8.834;2022-07-22T02:58:44;1.50;;;0.90;;
1731;SDS011;863;52.268;8.834;2022-07-22T03:01:11;2.63;;;1.20;;
1731;SDS011;863;52.268;8.834;2022-07-22T03:03:36;2.47;;;1.10;;
1731;SDS011;863;52.268;8.834;2022-07-22T03:06:01;3.40;;;1.50;;
1731;SDS011;863;52.268;8.834;2022-07-22T03:08:26;1.65;;;1.23;;
1731;SDS011;863;52.268;8.834;2022-07-22T03:10:52;2.00;;;1.00;;
1731;SDS011;863;52.268;8.834;2022-07-22T03:13:18;2.57;;;1.00;;
1731;SDS011;863;52.268;8.834;2022-07-22T03:15:43;3.10;;;1.57;;
1731;SDS011;863;52.268;8.834;2022-07-22T03:18:08;3.00;;;1.10;;
1731;SDS011;863;52.268;8.834;2022-07-22T03:20:33;2.57;;;1.20;;
1731;SDS011;863;52.268;8.834;2022-07-22T03:22:59;2.80;;;1.30;;
1731;SDS011;863;52.268;8.834;2022-07-22T03:25:24;2.67;;;1.30;;
1731;SDS011;863;52.268;8.834;2022-07-22T03:27:49;3.63;;;1.40;;
1731;SDS011;863;52.268;8.834;2022-07-22T03:30:14;2.17;;;1.43;;
1731;SDS011;863;52.268;8.834;2022-07-22T03:32:39;2.17;;;1.20;;
1731;SDS011;863;52.268;8.834;2022-07-22T03:35:09;2.50;;;1.10;;
1731;SDS011;863;52.268;8.834;2022-07-22T03:37:34;3.03;;;1.20;;
1731;SDS011;863;52.268;8.834;2022-07-22T03:40:00;2.28;;;0.95;;
1731;SDS011;863;52.268;8.834;2022-07-22T03:42:25;2.90;;;1.10;;
1731;SDS011;863;52.268;8.834;2022-07-22T03:44:50;6.50;;;1.50;;
1731;SDS011;863;52.268;8.834;2022-07-22T03:47:18;3.15;;;1.27;;
1731;SDS011;863;52.268;8.834;2022-07-22T03:49:44;1.97;;;1.20;;
1731;SDS011;863;52.268;8.834;2022-07-22T03:52:09;3.95;;;1.48;;
1731;SDS011;863;52.268;8.834;2022-07-22T03:54:34;2.55;;;1.25;;
1731;SDS011;863;52.268;8.834;2022-07-22T03:56:59;1.80;;;1.27;;
1731;SDS011;863;52.268;8.834;2022-07-22T03:59:24;3.38;;;1.85;;
1731;SDS011;863;52.268;8.834;2022-07-22T04:01:49;2.55;;;1.35;;
1731;SDS011;863;52.268;8.834;2022-07-22T04:04:15;1.60;;;1.20;;
1731;SDS011;863;52.268;8.834;2022-07-22T04:06:40;4.13;;;1.50;;
1731;SDS011;863;52.268;8.834;2022-07-22T04:09:05;1.77;;;1.20;;
1731;SDS011;863;52.268;8.834;2022-07-22T04:11:30;2.03;;;1.20;;
1731;SDS011;863;52.268;8.834;2022-07-22T04:13:55;2.28;;;1.25;;
1731;SDS011;863;52.268;8.834;2022-07-22T04:16:20;3.30;;;1.97;;
1731;SDS011;863;52.268;8.834;2022-07-22T04:18:46;2.43;;;1.47;;
1731;SDS011;863;52.268;8.834;2022-07-22T04:21:11;1.80;;;1.10;;
1731;SDS011;863;52.268;8.834;2022-07-22T04:23:36;3.10;;;1.30;;
1731;SDS011;863;52.268;8.834;2022-07-22T04:26:01;2.47;;;1.40;;
1731;SDS011;863;52.268;8.834;2022-07-22T04:28:26;2.17;;;1.13;;
1731;SDS011;863;52.268;8.834;2022-07-22T04:30:51;2.27;;;1.00;;
1731;SDS011;863;52.268;8.834;2022-07-22T04:33:17;1.40;;;0.93;;
1731;SDS011;863;52.268;8.834;2022-07-22T04:35:42;2.63;;;1.30;;
1731;SDS011;863;52.268;8.834;2022-07-22T04:38:08;1.83;;;1.20;;
1731;SDS011;863;52.268;8.834;2022-07-22T04:40:33;2.05;;;0.90;;
1731;SDS011;863;52.268;8.834;2022-07-22T04:42:58;2.03;;;1.10;;
1731;SDS011;863;52.268;8.834;2022-07-22T04:45:26;2.77;;;1.40;;
1731;SDS011;863;52.268;8.834;2022-07-22T04:47:52;3.13;;;1.30;;
1731;SDS011;863;52.268;8.834;2022-07-22T04:50:17;2.33;;;1.30;;
1731;SDS011;863;52.268;8.834;2022-07-22T04:52:42;3.00;;;1.70;;
1731;SDS011;863;52.268;8.834;2022-07-22T04:55:07;2.35;;;1.30;;
1731;SDS011;863;52.268;8.834;2022-07-22T04:57:32;3.73;;;1.43;;
1731;SDS011;863;52.268;8.834;2022-07-22T04:59:58;1.77;;;1.23;;
1731;SDS011;863;52.268;8.834;2022-07-22T05:02:23;4.47;;;1.20;;
1731;SDS011;863;52.268;8.834;2022-07-22T05:04:48;3.67;;;1.20;;
1731;SDS011;863;52.268;8.834;2022-07-22T05:07:13;3.97;;;1.43;;
1731;SDS011;863;52.268;8.834;2022-07-22T05:09:39;3.00;;;1.30;;
1731;SDS011;863;52.268;8.834;2022-07-22T05:12:04;2.20;;;1.57;;
1731;SDS011;863;52.268;8.834;2022-07-22T05:14:29;2.50;;;1.30;;
1731;SDS011;863;52.268;8.834;2022-07-22T05:16:54;3.47;;;1.30;;
1731;SDS011;863;52.268;8.834;2022-07-22T05:19:19;4.17;;;1.83;;
1731;SDS011;863;52.268;8.834;2022-07-22T05:21:45;3.42;;;1.30;;
1731;SDS011;863;52.268;8.834;2022-07-22T05:24:10;4.37;;;1.70;;
1731;SDS011;863;52.268;8.834;2022-07-22T05:26:35;3.77;;;1.77;;
1731;SDS011;863;52.268;8.834;2022-07-22T05:29:00;3.83;;;2.10;;
1731;SDS011;863;52.268;8.834;2022-07-22T05:31:25;3.17;;;2.20;;
1731;SDS011;863;52.268;8.834;2022-07-22T05:33:51;2.90;;;1.37;;
1731;SDS011;863;52.268;8.834;2022-07-22T05:36:16;3.07;;;1.70;;
1731;SDS011;863;52.268;8.834;2022-07-22T05:38:41;3.93;;;1.80;;
1731;SDS011;863;52.268;8.834;2022-07-22T05:41:06;2.93;;;1.50;;
1731;SDS011;863;52.268;8.834;2022-07-22T05:43:32;4.22;;;2.05;;
1731;SDS011;863;52.268;8.834;2022-07-22T05:45:57;5.60;;;2.23;;
1731;SDS011;863;52.268;8.834;2022-07-22T05:48:22;3.43;;;1.97;;
1731;SDS011;863;52.268;8.834;2022-07-22T05:50:47;3.03;;;2.43;;
1731;SDS011;863;52.268;8.834;2022-07-22T05:53:12;5.07;;;2.70;;
1731;SDS011;863;52.268;8.834;2022-07-22T05:55:37;4.33;;;2.40;;
1731;SDS011;863;52.268;8.834;2022-07-22T05:58:03;4.13;;;2.23;;
1731;SDS011;863;52.268;8.834;2022-07-22T06:00:28;4.23;;;2.93;;
1731;SDS011;863;52.268;8.834;2022-07-22T06:02:53;3.90;;;2.60;;
1731;SDS011;863;52.268;8.834;2022-07-22T06:05:19;3.38;;;2.60;;
1731;SDS011;863;52.268;8.834;2022-07-22T06:07:44;5.73;;;2.40;;
1731;SDS011;863;52.268;8.834;2022-07-22T06:10:09;3.30;;;2.30;;
1731;SDS011;863;52.268;8.834;2022-07-22T06:12:34;3.37;;;2.40;;
1731;SDS011;863;52.268;8.834;2022-07-22T06:15:00;3.80;;;2.87;;
1731;SDS011;863;52.268;8.834;2022-07-22T06:17:25;5.18;;;2.63;;
1731;SDS011;863;52.268;8.834;2022-07-22T06:19:50;10.33;;;3.43;;
1731;SDS011;863;52.268;8.834;2022-07-22T06:22:15;4.50;;;2.80;;
1731;SDS011;863;52.268;8.834;2022-07-22T06:24:42;3.97;;;3.10;;
1731;SDS011;863;52.268;8.834;2022-07-22T06:27:08;4.93;;;2.70;;
1731;SDS011;863;52.268;8.834;2022-07-22T06:29:33;3.50;;;2.60;;
1731;SDS011;863;52.268;8.834;2022-07-22T06:31:58;3.93;;;2.80;;
1731;SDS011;863;52.268;8.834;2022-07-22T06:34:23;3.67;;;2.90;;
1731;SDS011;863;52.268;8.834;2022-07-22T06:36:48;3.97;;;2.40;;
1731;SDS011;863;52.268;8.834;2022-07-22T06:39:13;4.27;;;2.87;;
1731;SDS011;863;52.268;8.834;2022-07-22T06:41:39;2.88;;;2.58;;
1731;SDS011;863;52.268;8.834;2022-07-22T06:44:04;3.33;;;2.10;;
1731;SDS011;863;52.268;8.834;2022-07-22T06:46:30;2.63;;;2.43;;
1731;SDS011;863;52.268;8.834;2022-07-22T06:48:55;3.37;;;2.17;;
1731;SDS011;863;52.268;8.834;2022-07-22T06:51:20;2.40;;;1.80;;
1731;SDS011;863;52.268;8.834;2022-07-22T06:53:45;3.03;;;1.70;;
1731;SDS011;863;52.268;8.834;2022-07-22T06:56:10;3.87;;;2.10;;
1731;SDS011;863;52.268;8.834;2022-07-22T06:58:35;3.80;;;2.10;;
1731;SDS011;863;52.268;8.834;2022-07-22T07:01:01;3.87;;;2.03;;
1731;SDS011;863;52.268;8.834;2022-07-22T07:03:26;7.40;;;2.20;;
1731;SDS011;863;52.268;8.834;2022-07-22T07:05:51;5.60;;;2.58;;
1731;SDS011;863;52.268;8.834;2022-07-22T07:08:17;3.43;;;1.93;;
1731;SDS011;863;52.268;8.834;2022-07-22T07:10:42;3.77;;;2.07;;
1731;SDS011;863;52.268;8.834;2022-07-22T07:13:07;4.17;;;2.40;;
1731;SDS011;863;52.268;8.834;2022-07-22T07:15:32;3.83;;;2.23;;
1731;SDS011;863;52.268;8.834;2022-07-22T07:17:57;4.30;;;2.20;;
1731;SDS011;863;52.268;8.834;2022-07-22T07:20:23;4.57;;;2.20;;
1731;SDS011;863;52.268;8.834;2022-07-22T07:22:48;4.60;;;2.20;;
1731;SDS011;863;52.268;8.834;2022-07-22T07:25:14;4.30;;;2.00;;
1731;SDS011;863;52.268;8.834;2022-07-22T07:27:39;7.17;;;2.63;;
1731;SDS011;863;52.268;8.834;2022-07-22T07:30:04;5.53;;;2.47;;
1731;SDS011;863;52.268;8.834;2022-07-22T07:32:30;4.53;;;2.70;;
1731;SDS011;863;52.268;8.834;2022-07-22T07:34:55;3.90;;;2.50;;
1731;SDS011;863;52.268;8.834;2022-07-22T07:37:20;3.77;;;1.90;;
1731;SDS011;863;52.268;8.834;2022-07-22T07:39:45;3.85;;;1.90;;
1731;SDS011;863;52.268;8.834;2022-07-22T07:42:11;3.27;;;2.40;;
1731;SDS011;863;52.268;8.834;2022-07-22T07:44:36;3.50;;;2.07;;
1731;SDS011;863;52.268;8.834;2022-07-22T07:47:01;4.03;;;2.30;;
1731;SDS011;863;52.268;8.834;2022-07-22T07:49:26;4.73;;;2.27;;
1731;SDS011;863;52.268;8.834;2022-07-22T07:51:51;3.90;;;2.43;;
1731;SDS011;863;52.268;8.834;2022-07-22T07:54:17;6.00;;;2.67;;
1731;SDS011;863;52.268;8.834;2022-07-22T07:56:42;6.33;;;2.67;;
1731;SDS011;863;52.268;8.834;2022-07-22T07:59:07;4.27;;;2.30;;
1731;SDS011;863;52.268;8.834;2022-07-22T08:01:33;4.53;;;2.23;;
1731;SDS011;863;52.268;8.834;2022-07-22T08:03:58;3.03;;;2.07;;
1731;SDS011;863;52.268;8.834;2022-07-22T08:06:23;6.97;;;3.00;;
1731;SDS011;863;52.268;8.834;2022-07-22T08:08:48;4.10;;;2.13;;
1731;SDS011;863;52.268;8.834;2022-07-22T08:11:13;3.37;;;2.10;;
1731;SDS011;863;52.268;8.834;2022-07-22T08:13:39;5.80;;;2.10;;
1731;SDS011;863;52.268;8.834;2022-07-22T08:16:04;6.60;;;2.30;;
1731;SDS011;863;52.268;8.834;2022-07-22T08:18:29;3.73;;;2.30;;
1731;SDS011;863;52.268;8.834;2022-07-22T08:20:55;4.93;;;2.30;;
1731;SDS011;863;52.268;8.834;2022-07-22T08:23:20;4.80;;;2.07;;
1731;SDS011;863;52.268;8.834;2022-07-22T08:25:45;3.10;;;2.13;;
1731;SDS011;863;52.268;8.834;2022-07-22T08:28:10;3.37;;;1.90;;
1731;SDS011;863;52.268;8.834;2022-07-22T08:30:36;3.78;;;2.40;;
1731;SDS011;863;52.268;8.834;2022-07-22T08:33:01;3.33;;;2.20;;
1731;SDS011;863;52.268;8.834;2022-07-22T08:35:27;3.93;;;1.97;;
1731;SDS011;863;52.268;8.834;2022-07-22T08:37:52;3.53;;;2.30;;
1731;SDS011;863;52.268;8.834;2022-07-22T08:40:17;5.53;;;2.10;;
1731;SDS011;863;52.268;8.834;2022-07-22T08:42:43;3.10;;;2.20;;
1731;SDS011;863;52.268;8.834;2022-07-22T08:45:09;4.00;;;1.80;;
1731;SDS011;863;52.268;8.834;2022-07-22T08:47:34;4.10;;;2.23;;
1731;SDS011;863;52.268;8.834;2022-07-22T08:50:00;2.20;;;1.60;;
1731;SDS011;863;52.268;8.834;2022-07-22T08:52:25;2.90;;;1.80;;
1731;SDS011;863;52.268;8.834;2022-07-22T08:54:50;3.10;;;2.03;;
1731;SDS011;863;52.268;8.834;2022-07-22T08:57:16;6.20;;;3.28;;
1731;SDS011;863;52.268;8.834;2022-07-22T08:59:52;2.43;;;1.70;;
1731;SDS011;863;52.268;8.834;2022-07-22T09:02:17;3.53;;;1.87;;
1731;SDS011;863;52.268;8.834;2022-07-22T09:07:22;2.90;;;2.10;;
1731;SDS011;863;52.268;8.834;2022-07-22T09:09:47;3.13;;;2.20;;
1731;SDS011;863;52.268;8.834;2022-07-22T09:12:12;5.57;;;2.70;;
1731;SDS011;863;52.268;8.834;2022-07-22T09:14:43;2.90;;;2.08;;
1731;SDS011;863;52.268;8.834;2022-07-22T09:17:21;2.67;;;2.07;;
1731;SDS011;863;52.268;8.834;2022-07-22T09:19:46;3.80;;;1.33;;
1731;SDS011;863;52.268;8.834;2022-07-22T09:22:11;2.58;;;1.67;;
1731;SDS011;863;52.268;8.834;2022-07-22T09:24:37;2.33;;;1.40;;
1731;SDS011;863;52.268;8.834;2022-07-22T09:27:02;2.35;;;1.50;;
1731;SDS011;863;52.268;8.834;2022-07-22T09:29:27;3.40;;;1.30;;
1731;SDS011;863;52.268;8.834;2022-07-22T09:31:52;4.60;;;1.30;;
1731;SDS011;863;52.268;8.834;2022-07-22T09:34:26;4.90;;;1.40;;
1731;SDS011;863;52.268;8.834;2022-07-22T09:36:55;2.60;;;1.33;;
1731;SDS011;863;52.268;8.834;2022-07-22T09:39:26;2.30;;;1.50;;
1731;SDS011;863;52.268;8.834;2022-07-22T09:41:58;3.40;;;1.60;;
1731;SDS011;863;52.268;8.834;2022-07-22T09:44:24;2.17;;;1.60;;
1731;SDS011;863;52.268;8.834;2022-07-22T09:46:49;2.63;;;1.50;;
1731;SDS011;863;52.268;8.834;2022-07-22T09:49:31;2.23;;;1.20;;
1731;SDS011;863;52.268;8.834;2022-07-22T09:51:56;3.60;;;1.87;;
1731;SDS011;863;52.268;8.834;2022-07-22T09:54:21;2.67;;;1.60;;
1731;SDS011;863;52.268;8.834;2022-07-22T09:56:47;2.17;;;1.53;;
1731;SDS011;863;52.268;8.834;2022-07-22T09:59:12;2.65;;;1.40;;
1731;SDS011;863;52.268;8.834;2022-07-22T10:01:37;2.37;;;1.40;;
1731;SDS011;863;52.268;8.834;2022-07-22T10:04:03;2.67;;;1.50;;
1731;SDS011;863;52.268;8.834;2022-07-22T10:06:29;3.40;;;1.33;;
1731;SDS011;863;52.268;8.834;2022-07-22T10:08:55;2.40;;;1.40;;
1731;SDS011;863;52.268;8.834;2022-07-22T10:11:21;2.07;;;1.40;;
1731;SDS011;863;52.268;8.834;2022-07-22T10:13:46;2.67;;;1.60;;
1731;SDS011;863;52.268;8.834;2022-07-22T10:16:11;2.13;;;1.30;;
1731;SDS011;863;52.268;8.834;2022-07-22T10:18:37;5.80;;;2.30;;
1731;SDS011;863;52.268;8.834;2022-07-22T10:21:04;2.33;;;1.63;;
1731;SDS011;863;52.268;8.834;2022-07-22T10:23:29;3.47;;;1.93;;
1731;SDS011;863;52.268;8.834;2022-07-22T10:25:55;3.40;;;1.70;;
1731;SDS011;863;52.268;8.834;2022-07-22T10:28:25;3.37;;;2.07;;
1731;SDS011;863;52.268;8.834;2022-07-22T10:30:51;5.70;;;2.37;;
1731;SDS011;863;52.268;8.834;2022-07-22T10:33:17;3.10;;;1.70;;
1731;SDS011;863;52.268;8.834;2022-07-22T10:35:58;3.40;;;1.60;;
1731;SDS011;863;52.268;8.834;2022-07-22T10:38:23;2.33;;;1.70;;
1731;SDS011;863;52.268;8.834;2022-07-22T10:40:50;3.93;;;2.73;;
1731;SDS011;863;52.268;8.834;2022-07-22T10:43:16;4.00;;;2.00;;
1731;SDS011;863;52.268;8.834;2022-07-22T10:45:43;2.30;;;1.80;;
1731;SDS011;863;52.268;8.834;2022-07-22T10:48:11;3.00;;;1.57;;
1731;SDS011;863;52.268;8.834;2022-07-22T10:53:12;3.10;;;1.80;;
1731;SDS011;863;52.268;8.834;2022-07-22T10:55:38;2.20;;;1.63;;
1731;SDS011;863;52.268;8.834;2022-07-22T11:00:47;3.33;;;2.27;;
1731;SDS011;863;52.268;8.834;2022-07-22T11:03:13;2.70;;;1.90;;
1731;SDS011;863;52.268;8.834;2022-07-22T11:05:48;3.17;;;1.77;;
1731;SDS011;863;52.268;8.834;2022-07-22T11:08:13;1.98;;;1.60;;
1731;SDS011;863;52.268;8.834;2022-07-22T11:10:46;2.50;;;1.70;;
1731;SDS011;863;52.268;8.834;2022-07-22T11:13:11;2.60;;;1.60;;
1731;SDS011;863;52.268;8.834;2022-07-22T11:15:36;3.00;;;1.40;;
1731;SDS011;863;52.268;8.834;2022-07-22T11:18:01;2.30;;;1.80;;
1731;SDS011;863;52.268;8.834;2022-07-22T11:20:26;3.53;;;1.77;;
1731;SDS011;863;52.268;8.834;2022-07-22T11:22:52;2.57;;;1.70;;
1731;SDS011;863;52.268;8.834;2022-07-22T11:25:17;4.90;;;2.10;;
1731;SDS011;863;52.268;8.834;2022-07-22T11:27:51;5.03;;;2.23;;
1731;SDS011;863;52.268;8.834;2022-07-22T11:30:22;3.67;;;1.83;;
1731;SDS011;863;52.268;8.834;2022-07-22T11:32:47;4.30;;;2.37;;
1731;SDS011;863;52.268;8.834;2022-07-22T11:35:13;4.53;;;2.00;;
1731;SDS011;863;52.268;8.834;2022-07-22T11:37:38;3.80;;;2.17;;
1731;SDS011;863;52.268;8.834;2022-07-22T11:40:04;3.42;;;1.95;;
1731;SDS011;863;52.268;8.834;2022-07-22T11:42:30;3.17;;;2.50;;
1731;SDS011;863;52.268;8.834;2022-07-22T11:44:55;3.70;;;2.53;;
1731;SDS011;863;52.268;8.834;2022-07-22T11:47:21;2.37;;;1.70;;
1731;SDS011;863;52.268;8.834;2022-07-22T11:49:46;2.30;;;1.60;;
1731;SDS011;863;52.268;8.834;2022-07-22T11:52:13;2.87;;;2.10;;
1731;SDS011;863;52.268;8.834;2022-07-22T11:54:38;2.30;;;1.63;;
1731;SDS011;863;52.268;8.834;2022-07-22T11:57:04;2.50;;;1.80;;
1731;SDS011;863;52.268;8.834;2022-07-22T11:59:30;4.57;;;1.93;;
1731;SDS011;863;52.268;8.834;2022-07-22T12:01:55;4.00;;;2.00;;
1731;SDS011;863;52.268;8.834;2022-07-22T12:04:21;3.00;;;1.93;;
1731;SDS011;863;52.268;8.834;2022-07-22T12:06:47;2.10;;;1.70;;
1731;SDS011;863;52.268;8.834;2022-07-22T12:09:16;2.37;;;2.00;;
1731;SDS011;863;52.268;8.834;2022-07-22T12:11:46;4.80;;;2.40;;
1731;SDS011;863;52.268;8.834;2022-07-22T12:14:12;3.10;;;2.13;;
1731;SDS011;863;52.268;8.834;2022-07-22T12:16:39;4.07;;;2.40;;
1731;SDS011;863;52.268;8.834;2022-07-22T12:19:06;3.87;;;2.77;;
1731;SDS011;863;52.268;8.834;2022-07-22T12:21:32;3.43;;;2.10;;
1731;SDS011;863;52.268;8.834;2022-07-22T12:24:00;4.63;;;2.93;;
1731;SDS011;863;52.268;8.834;2022-07-22T12:31:43;3.13;;;2.47;;
1731;SDS011;863;52.268;8.834;2022-07-22T12:34:09;2.77;;;2.10;;
1731;SDS011;863;52.268;8.834;2022-07-22T12:36:34;2.67;;;2.47;;
1731;SDS011;863;52.268;8.834;2022-07-22T12:39:10;3.40;;;2.23;;
1731;SDS011;863;52.268;8.834;2022-07-22T12:41:43;3.47;;;2.03;;
1731;SDS011;863;52.268;8.834;2022-07-22T12:44:14;6.60;;;1.80;;
1731;SDS011;863;52.268;8.834;2022-07-22T12:46:50;2.80;;;1.93;;
1731;SDS011;863;52.268;8.834;2022-07-22T12:49:16;3.47;;;2.10;;
1731;SDS011;863;52.268;8.834;2022-07-22T12:51:42;3.43;;;1.90;;
1731;SDS011;863;52.268;8.834;2022-07-22T12:54:07;2.97;;;2.20;;
1731;SDS011;863;52.268;8.834;2022-07-22T12:56:32;2.22;;;1.88;;
1731;SDS011;863;52.268;8.834;2022-07-22T12:58:58;2.90;;;1.80;;
1731;SDS011;863;52.268;8.834;2022-07-22T13:01:23;2.93;;;2.47;;
1731;SDS011;863;52.268;8.834;2022-07-22T13:03:49;4.77;;;2.40;;
1731;SDS011;863;52.268;8.834;2022-07-22T13:06:15;3.75;;;2.30;;
1731;SDS011;863;52.268;8.834;2022-07-22T13:08:40;4.20;;;1.87;;
1731;SDS011;863;52.268;8.834;2022-07-22T13:11:05;3.03;;;2.60;;
1731;SDS011;863;52.268;8.834;2022-07-22T13:13:30;2.77;;;2.07;;
1731;SDS011;863;52.268;8.834;2022-07-22T13:15:56;3.00;;;2.07;;
1731;SDS011;863;52.268;8.834;2022-07-22T13:18:21;3.40;;;2.00;;
1731;SDS011;863;52.268;8.834;2022-07-22T13:20:46;2.33;;;2.10;;
1731;SDS011;863;52.268;8.834;2022-07-22T13:23:12;2.60;;;2.00;;
1731;SDS011;863;52.268;8.834;2022-07-22T13:25:37;3.10;;;2.27;;
1731;SDS011;863;52.268;8.834;2022-07-22T13:28:02;3.83;;;2.27;;
1731;SDS011;863;52.268;8.834;2022-07-22T13:30:27;4.37;;;2.40;;
1731;SDS011;863;52.268;8.834;2022-07-22T13:32:53;4.40;;;2.10;;
1731;SDS011;863;52.268;8.834;2022-07-22T13:35:18;3.10;;;2.30;;
1731;SDS011;863;52.268;8.834;2022-07-22T13:37:44;2.57;;;2.10;;
1731;SDS011;863;52.268;8.834;2022-07-22T13:40:09;3.63;;;2.17;;
1731;SDS011;863;52.268;8.834;2022-07-22T13:42:35;2.80;;;2.27;;
1731;SDS011;863;52.268;8.834;2022-07-22T13:45:00;2.77;;;1.80;;
1731;SDS011;863;52.268;8.834;2022-07-22T13:47:25;2.20;;;2.00;;
1731;SDS011;863;52.268;8.834;2022-07-22T13:49:51;3.70;;;2.43;;
1731;SDS011;863;52.268;8.834;2022-07-22T13:52:16;4.13;;;2.30;;
1731;SDS011;863;52.268;8.834;2022-07-22T13:54:43;3.63;;;2.70;;
1731;SDS011;863;52.268;8.834;2022-07-22T13:57:09;3.50;;;2.47;;
1731;SDS011;863;52.268;8.834;2022-07-22T13:59:34;2.20;;;1.83;;
1731;SDS011;863;52.268;8.834;2022-07-22T14:01:59;2.83;;;2.50;;
1731;SDS011;863;52.268;8.834;2022-07-22T14:04:26;3.30;;;2.40;;
1731;SDS011;863;52.268;8.834;2022-07-22T14:06:51;3.13;;;2.83;;
1731;SDS011;863;52.268;8.834;2022-07-22T14:09:16;2.53;;;2.33;;
1731;SDS011;863;52.268;8.834;2022-07-22T14:11:42;3.73;;;2.30;;
1731;SDS011;863;52.268;8.834;2022-07-22T14:14:07;3.70;;;2.50;;
1731;SDS011;863;52.268;8.834;2022-07-22T14:16:33;3.10;;;2.80;;
1731;SDS011;863;52.268;8.834;2022-07-22T14:19:02;3.10;;;2.78;;
1731;SDS011;863;52.268;8.834;2022-07-22T14:21:27;3.43;;;2.47;;
1731;SDS011;863;52.268;8.834;2022-07-22T14:23:52;3.10;;;2.63;;
1731;SDS011;863;52.268;8.834;2022-07-22T14:26:18;2.58;;;2.38;;
1731;SDS011;863;52.268;8.834;2022-07-22T14:28:43;2.83;;;2.63;;
1731;SDS011;863;52.268;8.834;2022-07-22T14:31:08;4.10;;;2.73;;
1731;SDS011;863;52.268;8.834;2022-07-22T14:33:33;3.35;;;2.45;;
1731;SDS011;863;52.268;8.834;2022-07-22T14:35:59;3.53;;;2.83;;
1731;SDS011;863;52.268;8.834;2022-07-22T14:38:24;2.80;;;2.40;;
1731;SDS011;863;52.268;8.834;2022-07-22T14:40:49;3.60;;;2.60;;
1731;SDS011;863;52.268;8.834;2022-07-22T14:43:14;4.53;;;2.83;;
1731;SDS011;863;52.268;8.834;2022-07-22T14:45:39;4.40;;;2.70;;
1731;SDS011;863;52.268;8.834;2022-07-22T14:48:04;4.72;;;2.30;;
1731;SDS011;863;52.268;8.834;2022-07-22T14:50:30;3.37;;;2.50;;
1731;SDS011;863;52.268;8.834;2022-07-22T14:52:55;4.17;;;2.73;;
1731;SDS011;863;52.268;8.834;2022-07-22T14:55:20;5.90;;;3.10;;
1731;SDS011;863;52.268;8.834;2022-07-22T14:57:45;3.03;;;2.35;;
1731;SDS011;863;52.268;8.834;2022-07-22T15:00:10;4.68;;;2.83;;
1731;SDS011;863;52.268;8.834;2022-07-22T15:02:36;2.63;;;2.33;;
1731;SDS011;863;52.268;8.834;2022-07-22T15:05:01;3.20;;;2.90;;
1731;SDS011;863;52.268;8.834;2022-07-22T15:07:26;3.60;;;2.53;;
1731;SDS011;863;52.268;8.834;2022-07-22T15:09:51;3.30;;;2.70;;
1731;SDS011;863;52.268;8.834;2022-07-22T15:12:16;2.95;;;2.08;;
1731;SDS011;863;52.268;8.834;2022-07-22T15:14:42;3.25;;;2.63;;
1731;SDS011;863;52.268;8.834;2022-07-22T15:17:07;2.77;;;2.33;;
1731;SDS011;863;52.268;8.834;2022-07-22T15:19:32;3.83;;;2.53;;
1731;SDS011;863;52.268;8.834;2022-07-22T15:21:57;3.20;;;2.30;;
1731;SDS011;863;52.268;8.834;2022-07-22T15:24:23;3.60;;;2.55;;
1731;SDS011;863;52.268;8.834;2022-07-22T15:26:48;4.10;;;2.40;;
1731;SDS011;863;52.268;8.834;2022-07-22T15:29:13;3.67;;;2.33;;
1731;SDS011;863;52.268;8.834;2022-07-22T15:31:38;3.00;;;2.50;;
1731;SDS011;863;52.268;8.834;2022-07-22T15:34:04;3.47;;;2.77;;